createdAt,value
2018-08-22T00:04:25.962Z,91.40
2018-08-22T00:09:29.138Z,91.10
2018-08-22T00:14:32.530Z,91.80
2018-08-22T00:19:35.718Z,92.10
2018-08-22T00:24:39.875Z,92.60
2018-08-22T00:29:43.103Z,93.10
2018-08-22T00:34:46.263Z,93.20
2018-08-22T00:39:49.442Z,93.90
2018-08-22T00:44:52.638Z,94.40
2018-08-22T00:49:55.835Z,94.90
2018-08-22T00:54:59.020Z,94.30
2018-08-22T01:00:02.211Z,94.70
2018-08-22T01:05:05.405Z,95.10
2018-08-22T01:10:09.258Z,95.30
2018-08-22T01:15:12.442Z,94.90
2018-08-22T01:20:15.666Z,95.50
2018-08-22T01:25:18.857Z,95.60
2018-08-22T01:30:22.039Z,95.60
2018-08-22T01:35:25.257Z,95.80
2018-08-22T01:40:28.455Z,96.00
2018-08-22T01:45:31.635Z,96.60
2018-08-22T01:50:34.851Z,96.60
2018-08-22T01:55:38.065Z,96.90
2018-08-22T02:00:41.258Z,97.00
2018-08-22T02:05:44.458Z,97.50
2018-08-22T02:10:48.007Z,97.10
2018-08-22T02:15:51.221Z,97.50
2018-08-22T02:20:54.407Z,97.50
2018-08-22T02:25:57.606Z,97.50
2018-08-22T02:31:00.810Z,97.30
2018-08-22T02:36:04.021Z,97.20
2018-08-22T02:41:07.240Z,97.50
2018-08-22T02:46:10.515Z,97.40
2018-08-22T02:51:13.734Z,97.00
2018-08-22T02:56:16.939Z,96.70
2018-08-22T03:01:20.365Z,97.40
2018-08-22T03:06:23.620Z,96.80
2018-08-22T03:11:26.804Z,96.60
2018-08-22T03:16:30.002Z,95.30
2018-08-22T03:21:33.231Z,95.50
2018-08-22T03:26:36.436Z,95.50
2018-08-22T03:31:39.622Z,93.30
2018-08-22T03:36:42.823Z,94.20
2018-08-22T03:41:46.502Z,95.30
2018-08-22T03:46:49.691Z,96.50
2018-08-22T03:51:52.913Z,94.90
2018-08-22T03:56:56.122Z,95.50
2018-08-22T04:01:59.427Z,95.60
2018-08-22T04:07:02.636Z,96.50
2018-08-22T04:12:05.849Z,95.60
2018-08-22T04:17:09.085Z,95.20
2018-08-22T04:22:12.302Z,95.70
2018-08-22T04:27:15.517Z,94.20
2018-08-22T04:32:18.724Z,93.00
2018-08-22T04:37:21.950Z,93.90
2018-08-22T04:42:25.149Z,93.20
2018-08-22T04:47:28.368Z,92.50
2018-08-22T04:52:31.590Z,92.10
2018-08-22T04:57:34.822Z,91.90
2018-08-22T05:02:38.135Z,90.10
2018-08-22T05:07:41.358Z,88.20
2018-08-22T05:12:44.552Z,85.40
2018-08-22T05:17:47.770Z,82.00
2018-08-22T05:22:50.951Z,80.20
2018-08-22T05:27:54.171Z,79.00
2018-08-22T05:32:57.376Z,80.40
2018-08-22T05:38:00.567Z,81.80
2018-08-22T05:43:03.782Z,80.60
2018-08-22T05:48:06.990Z,77.80
2018-08-22T05:53:10.227Z,73.40
2018-08-22T05:58:13.567Z,69.40
2018-08-22T06:03:16.781Z,67.90
2018-08-22T06:08:20.194Z,66.30
2018-08-22T06:13:23.397Z,65.50
2018-08-22T06:18:26.598Z,63.20
2018-08-22T06:23:29.795Z,61.40
2018-08-22T06:28:32.986Z,60.60
2018-08-22T06:33:36.191Z,59.90
2018-08-22T06:38:39.411Z,59.60
2018-08-22T06:43:42.712Z,57.60
2018-08-22T06:48:45.955Z,56.00
2018-08-22T06:53:49.206Z,54.60
2018-08-22T06:58:52.421Z,54.60
2018-08-22T07:03:55.645Z,54.40
2018-08-22T07:08:59.119Z,54.90
2018-08-22T07:14:02.352Z,54.40
2018-08-22T07:19:05.607Z,54.30
2018-08-22T07:24:08.819Z,54.70
2018-08-22T07:29:12.026Z,52.60
2018-08-22T07:34:15.243Z,50.00
2018-08-22T07:39:18.431Z,48.80
2018-08-22T07:44:21.654Z,48.80
2018-08-22T07:49:24.886Z,49.40
2018-08-22T07:54:38.474Z,48.70
2018-08-22T07:59:41.661Z,46.50
2018-08-22T08:04:44.866Z,45.30
2018-08-22T08:09:48.070Z,45.60
2018-08-22T08:15:01.758Z,44.10
2018-08-22T08:20:05.475Z,44.40
2018-08-22T08:25:08.655Z,45.90
2018-08-22T08:30:11.876Z,45.50
2018-08-22T08:35:15.176Z,43.20
2018-08-22T08:40:18.429Z,42.10
2018-08-22T08:45:21.674Z,41.30
2018-08-22T08:50:24.903Z,41.30
2018-08-22T08:55:28.104Z,42.50
2018-08-22T09:00:31.304Z,41.20
2018-08-22T09:05:34.572Z,44.00
2018-08-22T09:10:37.873Z,42.50
2018-08-22T09:15:41.547Z,40.70
2018-08-22T09:20:44.718Z,40.30
2018-08-22T09:25:47.912Z,40.30
2018-08-22T09:30:51.134Z,40.30
2018-08-22T09:35:54.367Z,40.00
2018-08-22T09:40:57.915Z,39.60
2018-08-22T09:46:01.123Z,41.60
2018-08-22T09:51:04.384Z,41.10
2018-08-22T09:56:07.598Z,39.10
2018-08-22T10:01:16.223Z,39.90
2018-08-22T10:06:32.685Z,42.20
2018-08-22T10:11:35.902Z,41.70
2018-08-22T10:16:40.165Z,43.20
2018-08-22T10:21:43.384Z,42.30
2018-08-22T10:26:46.636Z,42.30
2018-08-22T10:31:49.840Z,43.60
2018-08-22T10:36:53.031Z,44.10
2018-08-22T10:41:56.258Z,44.40
2018-08-22T10:46:59.466Z,44.20
2018-08-22T10:52:02.729Z,42.70
2018-08-22T10:57:05.927Z,40.70
2018-08-22T11:02:09.228Z,42.60
2018-08-22T11:07:12.422Z,39.70
2018-08-22T11:12:15.631Z,38.40
2018-08-22T11:17:18.862Z,38.30
2018-08-22T11:22:33.616Z,40.40
2018-08-22T11:27:48.272Z,41.40
2018-08-22T11:33:03.160Z,42.20
2018-08-22T11:38:06.468Z,42.30
2018-08-22T11:43:09.692Z,42.00
2018-08-22T11:48:13.040Z,40.90
2018-08-22T11:53:16.252Z,43.10
2018-08-22T11:58:19.486Z,44.50
2018-08-22T12:03:22.727Z,44.90
2018-08-22T12:08:26.322Z,44.90
2018-08-22T12:13:29.541Z,44.30
2018-08-22T12:18:32.772Z,43.60
2018-08-22T12:23:36.311Z,42.60
2018-08-22T12:28:39.534Z,43.20
2018-08-22T12:33:42.799Z,45.40
2018-08-22T12:38:46.117Z,43.50
2018-08-22T12:43:49.459Z,43.20
2018-08-22T12:48:52.792Z,44.50
2018-08-22T12:53:56.011Z,45.40
2018-08-22T12:58:59.250Z,45.40
2018-08-22T13:04:02.451Z,45.40
2018-08-22T13:09:07.350Z,45.00
2018-08-22T13:14:10.613Z,46.10
2018-08-22T13:19:13.810Z,45.50
2018-08-22T13:24:17.013Z,46.20
2018-08-22T13:29:20.455Z,46.10
2018-08-22T13:34:23.788Z,46.40
2018-08-22T13:39:27.010Z,45.00
2018-08-22T13:44:30.276Z,46.40
2018-08-22T13:49:33.517Z,47.10
2018-08-22T13:54:36.745Z,47.30
2018-08-22T13:59:40.044Z,47.30
2018-08-22T14:04:43.240Z,47.40
2018-08-22T14:09:46.707Z,46.90
2018-08-22T14:14:49.927Z,46.70
2018-08-22T14:19:53.171Z,46.20
2018-08-22T14:24:56.385Z,46.30
2018-08-22T14:29:59.716Z,46.90
2018-08-22T14:35:02.916Z,48.80
2018-08-22T14:40:06.142Z,49.70
2018-08-22T14:45:09.369Z,49.50
2018-08-22T14:50:12.707Z,49.40
2018-08-22T14:55:15.940Z,49.60
2018-08-22T15:00:19.212Z,50.80
2018-08-22T15:05:22.440Z,51.40
2018-08-22T15:10:25.707Z,51.70
2018-08-22T15:15:28.972Z,51.10
2018-08-22T15:20:32.212Z,50.70
2018-08-22T15:25:35.783Z,50.40
2018-08-22T15:30:38.982Z,50.40
2018-08-22T15:35:42.190Z,51.00
2018-08-22T15:40:45.409Z,51.30
2018-08-22T15:45:48.618Z,51.90
2018-08-22T15:50:51.852Z,52.60
2018-08-22T15:55:55.062Z,54.00
2018-08-22T16:00:58.324Z,54.40
2018-08-22T16:06:01.534Z,54.60
2018-08-22T16:11:06.774Z,54.20
2018-08-22T16:16:10.021Z,54.80
2018-08-22T16:21:13.263Z,55.00
2018-08-22T16:26:16.565Z,56.10
2018-08-22T16:31:20.428Z,55.70
2018-08-22T16:36:28.635Z,56.00
2018-08-22T16:41:31.895Z,55.70
2018-08-22T16:46:35.106Z,56.30
2018-08-22T16:51:38.406Z,57.70
2018-08-22T16:56:41.621Z,58.30
2018-08-22T17:01:47.032Z,58.00
2018-08-22T17:06:50.184Z,58.60
2018-08-22T17:11:53.406Z,58.70
2018-08-22T17:16:56.618Z,59.00
2018-08-22T17:21:59.855Z,59.60
2018-08-22T17:27:03.114Z,60.70
2018-08-22T17:32:06.753Z,62.00
2018-08-22T17:37:10.031Z,62.50
2018-08-22T17:42:13.319Z,63.30
2018-08-22T17:47:16.519Z,63.90
2018-08-22T17:52:19.757Z,64.90
2018-08-22T17:57:24.406Z,65.80
2018-08-22T18:02:27.628Z,66.10
2018-08-22T18:07:30.888Z,66.90
2018-08-22T18:12:34.359Z,67.60
2018-08-22T18:17:37.622Z,68.70
2018-08-22T18:22:41.464Z,71.10
2018-08-22T18:27:45.525Z,72.80
2018-08-22T18:32:54.781Z,74.40
2018-08-22T18:37:59.155Z,75.40
2018-08-22T18:43:04.146Z,76.20
2018-08-22T18:48:07.683Z,76.90
2018-08-22T18:53:11.487Z,78.10
2018-08-22T18:58:14.847Z,78.00
2018-08-22T19:03:18.194Z,79.00
2018-08-22T19:08:21.985Z,79.40
2018-08-22T19:13:25.987Z,79.70
2018-08-22T19:18:29.190Z,80.70
2018-08-22T19:23:32.499Z,80.60
2018-08-22T19:28:53.468Z,81.80
2018-08-22T19:33:56.703Z,81.80
2018-08-22T19:38:59.932Z,82.20
2018-08-22T19:44:04.246Z,82.00
2018-08-22T19:49:07.623Z,82.90
2018-08-22T19:54:10.733Z,83.10
2018-08-22T19:59:14.210Z,83.30
2018-08-22T20:04:17.427Z,83.70
2018-08-22T20:09:20.654Z,84.10
2018-08-22T20:14:23.886Z,84.50
2018-08-22T20:19:31.923Z,84.40
2018-08-22T20:24:35.150Z,85.00
2018-08-22T20:29:38.363Z,86.00
2018-08-22T20:34:41.728Z,86.60
2018-08-22T20:39:45.233Z,87.00
2018-08-22T20:44:48.366Z,87.80
2018-08-22T20:49:52.875Z,88.00
2018-08-22T20:55:01.566Z,87.50
2018-08-22T21:00:05.798Z,87.90
2018-08-22T21:05:09.009Z,88.40
2018-08-22T21:10:12.226Z,88.40
2018-08-22T21:15:15.459Z,88.10
2018-08-22T21:20:23.647Z,88.60
2018-08-22T21:25:26.909Z,89.00
2018-08-22T21:30:30.138Z,89.30
2018-08-22T21:35:33.365Z,89.40
2018-08-22T21:40:36.807Z,89.70
2018-08-22T21:45:40.041Z,89.60
2018-08-22T21:50:44.091Z,90.30
2018-08-22T21:55:48.914Z,91.00
2018-08-22T22:00:52.122Z,91.20
2018-08-22T22:06:00.571Z,91.20
2018-08-22T22:11:07.190Z,91.30
2018-08-22T22:16:10.426Z,92.00
2018-08-22T22:21:14.767Z,92.10
2018-08-22T22:26:19.663Z,92.60
2018-08-22T22:31:22.887Z,92.60
2018-08-22T22:36:26.098Z,93.60
2018-08-22T22:41:30.506Z,93.00
2018-08-22T22:46:33.722Z,93.50
2018-08-22T22:51:36.979Z,93.60
2018-08-22T22:56:40.305Z,93.00
2018-08-22T23:01:43.540Z,94.20
2018-08-22T23:06:47.190Z,93.90
2018-08-22T23:11:50.395Z,93.80
2018-08-22T23:16:53.627Z,94.00
2018-08-22T23:21:56.845Z,93.80
2018-08-22T23:27:00.078Z,94.20
2018-08-22T23:32:03.286Z,94.00
2018-08-22T23:37:06.510Z,94.20
2018-08-22T23:42:09.766Z,95.00
2018-08-22T23:47:12.978Z,95.20
2018-08-22T23:52:16.239Z,95.30
2018-08-22T23:57:20.830Z,95.40
